Wendel, West Virginia
Current Conditions -  °F | °C
As of 12:53 AM on Tuesday 21 Oct 2014 (Local Time) from KCKB Reporting Station
Broken Clouds Broken Clouds  
Wind Chill: 51°   Ceiling: 6000
Heat Index: 51°   Visibility: 10mi
Dew Point: 46°   Wind: 5mph
Humidity: 83%   Direction: 190°S
Pressure: 29.89"   Gusts: NA
Location:  39.2753°N, 80.1249°W
Report Text: KCKB 210453Z 19004KT 10SM SCT036 BKN060 11/08 A2989 RMK AO2 SLP117 T01060078 401440022 $
Loading
Personal Weather Stations






























Interactive Weather Map
Tropical Storm Tracking
New forecast layout! Learn more

10-Day Weather Forecast

Advertisements
Track Severe Weather on mobile